sensor_id;sensor_type;location;lat;lon;timestamp;P1;durP1;ratioP1;P2;durP2;ratioP2
4575;SDS011;2300;51.874;8.430;2022-09-12T00:01:44;1999.90;;;999.90;;
4575;SDS011;2300;51.874;8.430;2022-09-12T00:04:11;1999.90;;;999.90;;
4575;SDS011;2300;51.874;8.430;2022-09-12T00:06:38;1999.90;;;999.90;;
4575;SDS011;2300;51.874;8.430;2022-09-12T00:09:05;1999.90;;;999.90;;
4575;SDS011;2300;51.874;8.430;2022-09-12T00:11:34;1999.90;;;999.90;;
4575;SDS011;2300;51.874;8.430;2022-09-12T00:14:02;1999.90;;;999.90;;
4575;SDS011;2300;51.874;8.430;2022-09-12T00:16:32;1999.90;;;999.90;;
4575;SDS011;2300;51.874;8.430;2022-09-12T00:19:02;1999.90;;;999.90;;
4575;SDS011;2300;51.874;8.430;2022-09-12T00:21:31;1999.90;;;999.90;;
4575;SDS011;2300;51.874;8.430;2022-09-12T00:23:58;1999.90;;;999.90;;
4575;SDS011;2300;51.874;8.430;2022-09-12T00:26:24;1999.90;;;999.90;;
4575;SDS011;2300;51.874;8.430;2022-09-12T00:28:51;1999.90;;;999.90;;
4575;SDS011;2300;51.874;8.430;2022-09-12T00:31:18;1999.90;;;999.90;;
4575;SDS011;2300;51.874;8.430;2022-09-12T00:33:47;1999.90;;;999.90;;
4575;SDS011;2300;51.874;8.430;2022-09-12T00:36:16;1999.90;;;999.90;;
4575;SDS011;2300;51.874;8.430;2022-09-12T00:38:44;1999.90;;;999.90;;
4575;SDS011;2300;51.874;8.430;2022-09-12T00:41:13;1999.90;;;999.90;;
4575;SDS011;2300;51.874;8.430;2022-09-12T00:43:43;1999.90;;;999.90;;
4575;SDS011;2300;51.874;8.430;2022-09-12T00:46:12;1999.90;;;999.90;;
4575;SDS011;2300;51.874;8.430;2022-09-12T00:48:47;1999.90;;;999.90;;
4575;SDS011;2300;51.874;8.430;2022-09-12T00:51:18;1999.90;;;999.90;;
4575;SDS011;2300;51.874;8.430;2022-09-12T00:53:45;1999.90;;;999.90;;
4575;SDS011;2300;51.874;8.430;2022-09-12T00:56:15;1999.90;;;999.90;;
4575;SDS011;2300;51.874;8.430;2022-09-12T00:58:44;1999.90;;;999.90;;
4575;SDS011;2300;51.874;8.430;2022-09-12T01:01:14;1999.90;;;999.90;;
4575;SDS011;2300;51.874;8.430;2022-09-12T01:03:40;1999.90;;;999.90;;
4575;SDS011;2300;51.874;8.430;2022-09-12T01:06:08;1999.90;;;999.90;;
4575;SDS011;2300;51.874;8.430;2022-09-12T01:08:45;1999.90;;;999.90;;
4575;SDS011;2300;51.874;8.430;2022-09-12T01:11:13;1999.90;;;999.90;;
4575;SDS011;2300;51.874;8.430;2022-09-12T01:13:41;1999.90;;;999.90;;
4575;SDS011;2300;51.874;8.430;2022-09-12T01:16:09;1999.90;;;999.90;;
4575;SDS011;2300;51.874;8.430;2022-09-12T01:18:42;1999.90;;;999.90;;
4575;SDS011;2300;51.874;8.430;2022-09-12T01:21:18;1999.90;;;999.90;;
4575;SDS011;2300;51.874;8.430;2022-09-12T01:27:09;1999.90;;;999.90;;
4575;SDS011;2300;51.874;8.430;2022-09-12T01:29:49;1999.90;;;999.90;;
4575;SDS011;2300;51.874;8.430;2022-09-12T01:32:37;1999.90;;;999.90;;
4575;SDS011;2300;51.874;8.430;2022-09-12T01:35:14;1999.90;;;999.90;;
4575;SDS011;2300;51.874;8.430;2022-09-12T01:37:51;1999.90;;;999.90;;
4575;SDS011;2300;51.874;8.430;2022-09-12T01:40:27;1999.90;;;999.90;;
4575;SDS011;2300;51.874;8.430;2022-09-12T01:43:01;1999.90;;;999.90;;
4575;SDS011;2300;51.874;8.430;2022-09-12T01:45:38;1999.90;;;999.90;;
4575;SDS011;2300;51.874;8.430;2022-09-12T01:48:12;1999.90;;;999.90;;
4575;SDS011;2300;51.874;8.430;2022-09-12T01:50:45;1999.90;;;999.90;;
4575;SDS011;2300;51.874;8.430;2022-09-12T01:53:16;1999.90;;;999.90;;
4575;SDS011;2300;51.874;8.430;2022-09-12T01:55:48;1999.90;;;999.90;;
4575;SDS011;2300;51.874;8.430;2022-09-12T01:58:20;1999.90;;;999.90;;
4575;SDS011;2300;51.874;8.430;2022-09-12T02:00:54;1999.90;;;999.90;;
4575;SDS011;2300;51.874;8.430;2022-09-12T02:03:28;1999.90;;;999.90;;
4575;SDS011;2300;51.874;8.430;2022-09-12T02:05:59;1999.90;;;999.90;;
4575;SDS011;2300;51.874;8.430;2022-09-12T02:08:32;1999.90;;;999.90;;
4575;SDS011;2300;51.874;8.430;2022-09-12T02:11:05;1999.90;;;999.90;;
4575;SDS011;2300;51.874;8.430;2022-09-12T02:13:34;1999.90;;;999.90;;
4575;SDS011;2300;51.874;8.430;2022-09-12T02:16:05;1999.90;;;999.90;;
4575;SDS011;2300;51.874;8.430;2022-09-12T02:18:37;1999.90;;;999.90;;
4575;SDS011;2300;51.874;8.430;2022-09-12T02:21:05;1999.90;;;999.90;;
4575;SDS011;2300;51.874;8.430;2022-09-12T02:23:32;1999.90;;;999.90;;
4575;SDS011;2300;51.874;8.430;2022-09-12T02:26:04;1999.90;;;999.90;;
4575;SDS011;2300;51.874;8.430;2022-09-12T02:28:37;1999.90;;;999.90;;
4575;SDS011;2300;51.874;8.430;2022-09-12T02:31:08;1999.90;;;999.90;;
4575;SDS011;2300;51.874;8.430;2022-09-12T02:33:43;1999.90;;;999.90;;
4575;SDS011;2300;51.874;8.430;2022-09-12T02:36:19;1999.90;;;999.90;;
4575;SDS011;2300;51.874;8.430;2022-09-12T02:38:57;1999.90;;;999.90;;
4575;SDS011;2300;51.874;8.430;2022-09-12T02:41:24;1999.90;;;999.90;;
4575;SDS011;2300;51.874;8.430;2022-09-12T02:43:51;1999.90;;;999.90;;
4575;SDS011;2300;51.874;8.430;2022-09-12T02:46:19;1999.90;;;999.90;;
4575;SDS011;2300;51.874;8.430;2022-09-12T02:48:50;1999.90;;;999.90;;
4575;SDS011;2300;51.874;8.430;2022-09-12T02:51:17;1999.90;;;999.90;;
4575;SDS011;2300;51.874;8.430;2022-09-12T02:53:44;1999.90;;;999.90;;
4575;SDS011;2300;51.874;8.430;2022-09-12T02:56:11;1999.90;;;999.90;;
4575;SDS011;2300;51.874;8.430;2022-09-12T02:58:43;1999.90;;;999.90;;
4575;SDS011;2300;51.874;8.430;2022-09-12T03:01:11;1999.90;;;999.90;;
4575;SDS011;2300;51.874;8.430;2022-09-12T03:03:50;1999.90;;;999.90;;
4575;SDS011;2300;51.874;8.430;2022-09-12T03:06:29;1999.90;;;999.90;;
4575;SDS011;2300;51.874;8.430;2022-09-12T03:09:02;1999.90;;;999.90;;
4575;SDS011;2300;51.874;8.430;2022-09-12T03:11:42;1999.90;;;999.90;;
4575;SDS011;2300;51.874;8.430;2022-09-12T03:14:21;1999.90;;;999.90;;
4575;SDS011;2300;51.874;8.430;2022-09-12T03:16:59;1999.90;;;999.90;;
4575;SDS011;2300;51.874;8.430;2022-09-12T03:19:40;1999.90;;;999.90;;
4575;SDS011;2300;51.874;8.430;2022-09-12T03:22:18;1999.90;;;999.90;;
4575;SDS011;2300;51.874;8.430;2022-09-12T03:24:52;1999.90;;;999.90;;
4575;SDS011;2300;51.874;8.430;2022-09-12T03:27:26;1999.90;;;999.90;;
4575;SDS011;2300;51.874;8.430;2022-09-12T03:29:56;1999.90;;;999.90;;
4575;SDS011;2300;51.874;8.430;2022-09-12T03:32:38;1999.90;;;999.90;;
4575;SDS011;2300;51.874;8.430;2022-09-12T03:35:06;1999.90;;;999.90;;
4575;SDS011;2300;51.874;8.430;2022-09-12T03:37:33;1999.90;;;999.90;;
4575;SDS011;2300;51.874;8.430;2022-09-12T03:39:59;1999.90;;;999.90;;
4575;SDS011;2300;51.874;8.430;2022-09-12T03:42:26;1999.90;;;999.90;;
4575;SDS011;2300;51.874;8.430;2022-09-12T03:44:53;1999.90;;;999.90;;
4575;SDS011;2300;51.874;8.430;2022-09-12T03:47:19;1999.90;;;999.90;;
4575;SDS011;2300;51.874;8.430;2022-09-12T03:49:45;1999.90;;;999.90;;
4575;SDS011;2300;51.874;8.430;2022-09-12T03:52:13;1999.90;;;999.90;;
4575;SDS011;2300;51.874;8.430;2022-09-12T03:54:40;1999.90;;;999.90;;
4575;SDS011;2300;51.874;8.430;2022-09-12T03:57:06;1999.90;;;999.90;;
4575;SDS011;2300;51.874;8.430;2022-09-12T03:59:32;1999.90;;;999.90;;
4575;SDS011;2300;51.874;8.430;2022-09-12T04:01:59;1999.90;;;999.90;;
4575;SDS011;2300;51.874;8.430;2022-09-12T04:04:25;1999.90;;;999.90;;
4575;SDS011;2300;51.874;8.430;2022-09-12T04:06:52;1999.90;;;999.90;;
4575;SDS011;2300;51.874;8.430;2022-09-12T04:09:20;1999.90;;;999.90;;
4575;SDS011;2300;51.874;8.430;2022-09-12T04:11:47;1999.90;;;999.90;;
4575;SDS011;2300;51.874;8.430;2022-09-12T04:14:13;1999.90;;;999.90;;
4575;SDS011;2300;51.874;8.430;2022-09-12T04:16:39;1999.90;;;999.90;;
4575;SDS011;2300;51.874;8.430;2022-09-12T04:19:06;1999.90;;;999.90;;
4575;SDS011;2300;51.874;8.430;2022-09-12T04:21:33;1999.90;;;999.90;;
4575;SDS011;2300;51.874;8.430;2022-09-12T04:23:59;1999.90;;;999.90;;
4575;SDS011;2300;51.874;8.430;2022-09-12T04:26:27;1999.90;;;999.90;;
4575;SDS011;2300;51.874;8.430;2022-09-12T04:28:55;1999.90;;;999.90;;
4575;SDS011;2300;51.874;8.430;2022-09-12T04:31:22;1999.90;;;999.90;;
4575;SDS011;2300;51.874;8.430;2022-09-12T04:33:52;1999.90;;;999.90;;
4575;SDS011;2300;51.874;8.430;2022-09-12T04:36:18;1999.90;;;999.90;;
4575;SDS011;2300;51.874;8.430;2022-09-12T04:38:46;1999.90;;;999.90;;
4575;SDS011;2300;51.874;8.430;2022-09-12T04:41:14;1999.90;;;999.90;;
4575;SDS011;2300;51.874;8.430;2022-09-12T04:43:43;1999.90;;;999.90;;
4575;SDS011;2300;51.874;8.430;2022-09-12T04:46:11;1999.90;;;999.90;;
4575;SDS011;2300;51.874;8.430;2022-09-12T04:48:40;1999.90;;;999.90;;
4575;SDS011;2300;51.874;8.430;2022-09-12T04:51:07;1999.90;;;999.90;;
4575;SDS011;2300;51.874;8.430;2022-09-12T04:53:35;1999.90;;;999.90;;
4575;SDS011;2300;51.874;8.430;2022-09-12T04:56:03;1999.90;;;999.90;;
4575;SDS011;2300;51.874;8.430;2022-09-12T04:58:31;1999.90;;;999.90;;
4575;SDS011;2300;51.874;8.430;2022-09-12T05:01:03;1999.90;;;999.90;;
4575;SDS011;2300;51.874;8.430;2022-09-12T05:03:31;1999.90;;;999.90;;
4575;SDS011;2300;51.874;8.430;2022-09-12T05:05:57;1999.90;;;999.90;;
4575;SDS011;2300;51.874;8.430;2022-09-12T05:08:24;1999.90;;;999.90;;
4575;SDS011;2300;51.874;8.430;2022-09-12T05:10:51;1999.90;;;999.90;;
4575;SDS011;2300;51.874;8.430;2022-09-12T05:13:17;1999.90;;;999.90;;
4575;SDS011;2300;51.874;8.430;2022-09-12T05:15:52;1999.90;;;999.90;;
4575;SDS011;2300;51.874;8.430;2022-09-12T05:18:21;1999.90;;;999.90;;
4575;SDS011;2300;51.874;8.430;2022-09-12T05:20:47;1999.90;;;999.90;;
4575;SDS011;2300;51.874;8.430;2022-09-12T05:23:14;1999.90;;;999.90;;
4575;SDS011;2300;51.874;8.430;2022-09-12T05:25:46;1999.90;;;999.90;;
4575;SDS011;2300;51.874;8.430;2022-09-12T05:28:13;1999.90;;;999.90;;
4575;SDS011;2300;51.874;8.430;2022-09-12T05:30:40;1999.90;;;999.90;;
4575;SDS011;2300;51.874;8.430;2022-09-12T05:33:06;1999.90;;;999.90;;
4575;SDS011;2300;51.874;8.430;2022-09-12T05:35:34;1999.90;;;999.90;;
4575;SDS011;2300;51.874;8.430;2022-09-12T05:38:02;1999.90;;;999.90;;
4575;SDS011;2300;51.874;8.430;2022-09-12T05:40:28;1999.90;;;999.90;;
4575;SDS011;2300;51.874;8.430;2022-09-12T05:42:55;1999.90;;;999.90;;
4575;SDS011;2300;51.874;8.430;2022-09-12T05:45:21;1999.90;;;999.90;;
4575;SDS011;2300;51.874;8.430;2022-09-12T05:47:48;1999.90;;;999.90;;
4575;SDS011;2300;51.874;8.430;2022-09-12T05:50:14;1999.90;;;999.90;;
4575;SDS011;2300;51.874;8.430;2022-09-12T05:52:42;1999.90;;;999.90;;
4575;SDS011;2300;51.874;8.430;2022-09-12T05:55:09;1999.90;;;999.90;;
4575;SDS011;2300;51.874;8.430;2022-09-12T05:57:36;1999.90;;;999.90;;
4575;SDS011;2300;51.874;8.430;2022-09-12T06:00:02;1999.90;;;999.90;;
4575;SDS011;2300;51.874;8.430;2022-09-12T06:02:31;1999.90;;;999.90;;
4575;SDS011;2300;51.874;8.430;2022-09-12T06:04:57;1999.90;;;999.90;;
4575;SDS011;2300;51.874;8.430;2022-09-12T06:07:23;1999.90;;;999.90;;
4575;SDS011;2300;51.874;8.430;2022-09-12T06:09:51;1999.90;;;999.90;;
4575;SDS011;2300;51.874;8.430;2022-09-12T06:12:18;1999.90;;;999.90;;
4575;SDS011;2300;51.874;8.430;2022-09-12T06:14:44;1999.90;;;999.90;;
4575;SDS011;2300;51.874;8.430;2022-09-12T06:17:11;1999.90;;;999.90;;
4575;SDS011;2300;51.874;8.430;2022-09-12T06:19:38;1999.90;;;999.90;;
4575;SDS011;2300;51.874;8.430;2022-09-12T06:22:04;1999.90;;;999.90;;
4575;SDS011;2300;51.874;8.430;2022-09-12T06:24:31;1999.90;;;999.90;;
4575;SDS011;2300;51.874;8.430;2022-09-12T06:26:58;1999.90;;;999.90;;
4575;SDS011;2300;51.874;8.430;2022-09-12T06:29:26;1999.90;;;999.90;;
4575;SDS011;2300;51.874;8.430;2022-09-12T06:31:53;1999.90;;;999.90;;
4575;SDS011;2300;51.874;8.430;2022-09-12T06:34:19;1999.90;;;999.90;;
4575;SDS011;2300;51.874;8.430;2022-09-12T06:36:46;1999.90;;;999.90;;
4575;SDS011;2300;51.874;8.430;2022-09-12T06:39:14;1999.90;;;999.90;;
4575;SDS011;2300;51.874;8.430;2022-09-12T06:41:42;1999.90;;;999.90;;
4575;SDS011;2300;51.874;8.430;2022-09-12T06:44:11;1999.90;;;999.90;;
4575;SDS011;2300;51.874;8.430;2022-09-12T06:46:39;1999.90;;;999.90;;
4575;SDS011;2300;51.874;8.430;2022-09-12T06:49:06;1999.90;;;999.90;;
4575;SDS011;2300;51.874;8.430;2022-09-12T06:51:33;1999.90;;;999.90;;
4575;SDS011;2300;51.874;8.430;2022-09-12T06:54:00;1999.90;;;999.90;;
4575;SDS011;2300;51.874;8.430;2022-09-12T06:56:27;1999.90;;;999.90;;
4575;SDS011;2300;51.874;8.430;2022-09-12T06:58:54;1999.90;;;999.90;;
4575;SDS011;2300;51.874;8.430;2022-09-12T07:01:24;1999.90;;;999.90;;
4575;SDS011;2300;51.874;8.430;2022-09-12T07:03:51;1999.90;;;999.90;;
4575;SDS011;2300;51.874;8.430;2022-09-12T07:06:20;1999.90;;;999.90;;
4575;SDS011;2300;51.874;8.430;2022-09-12T07:08:48;1999.90;;;999.90;;
4575;SDS011;2300;51.874;8.430;2022-09-12T07:11:15;1999.90;;;999.90;;
4575;SDS011;2300;51.874;8.430;2022-09-12T07:13:45;1999.90;;;999.90;;
4575;SDS011;2300;51.874;8.430;2022-09-12T07:16:13;1999.90;;;999.90;;
4575;SDS011;2300;51.874;8.430;2022-09-12T07:18:41;1999.90;;;999.90;;
4575;SDS011;2300;51.874;8.430;2022-09-12T07:21:11;1999.90;;;999.90;;
4575;SDS011;2300;51.874;8.430;2022-09-12T07:23:39;1999.90;;;999.90;;
4575;SDS011;2300;51.874;8.430;2022-09-12T07:26:07;1999.90;;;999.90;;
4575;SDS011;2300;51.874;8.430;2022-09-12T07:28:35;1999.90;;;999.90;;
4575;SDS011;2300;51.874;8.430;2022-09-12T07:31:05;1999.90;;;999.90;;
4575;SDS011;2300;51.874;8.430;2022-09-12T07:33:33;1999.90;;;999.90;;
4575;SDS011;2300;51.874;8.430;2022-09-12T07:36:02;1999.90;;;999.90;;
4575;SDS011;2300;51.874;8.430;2022-09-12T07:38:30;1999.90;;;999.90;;
4575;SDS011;2300;51.874;8.430;2022-09-12T07:40:57;1999.90;;;999.90;;
4575;SDS011;2300;51.874;8.430;2022-09-12T07:43:23;1999.90;;;999.90;;
4575;SDS011;2300;51.874;8.430;2022-09-12T07:45:53;1999.90;;;999.90;;
4575;SDS011;2300;51.874;8.430;2022-09-12T07:48:20;1999.90;;;999.90;;
4575;SDS011;2300;51.874;8.430;2022-09-12T07:50:47;1999.90;;;999.90;;
4575;SDS011;2300;51.874;8.430;2022-09-12T07:53:24;1999.90;;;999.90;;
4575;SDS011;2300;51.874;8.430;2022-09-12T07:55:54;1999.90;;;999.90;;
4575;SDS011;2300;51.874;8.430;2022-09-12T07:58:21;1999.90;;;999.90;;
4575;SDS011;2300;51.874;8.430;2022-09-12T08:00:47;1999.90;;;999.90;;
4575;SDS011;2300;51.874;8.430;2022-09-12T08:03:14;1999.90;;;999.90;;
4575;SDS011;2300;51.874;8.430;2022-09-12T08:05:40;1999.90;;;999.90;;
4575;SDS011;2300;51.874;8.430;2022-09-12T08:08:07;1999.90;;;999.90;;
4575;SDS011;2300;51.874;8.430;2022-09-12T08:10:35;1999.90;;;999.90;;
4575;SDS011;2300;51.874;8.430;2022-09-12T08:13:02;1999.90;;;999.90;;
4575;SDS011;2300;51.874;8.430;2022-09-12T08:15:29;1999.90;;;999.90;;
4575;SDS011;2300;51.874;8.430;2022-09-12T08:17:56;1999.90;;;999.90;;
4575;SDS011;2300;51.874;8.430;2022-09-12T08:20:22;1999.90;;;999.90;;
4575;SDS011;2300;51.874;8.430;2022-09-12T08:22:49;1999.90;;;999.90;;
4575;SDS011;2300;51.874;8.430;2022-09-12T08:25:15;1999.90;;;999.90;;
4575;SDS011;2300;51.874;8.430;2022-09-12T08:27:43;1999.90;;;999.90;;
4575;SDS011;2300;51.874;8.430;2022-09-12T08:30:11;1999.90;;;999.90;;
4575;SDS011;2300;51.874;8.430;2022-09-12T08:32:38;1999.90;;;999.90;;
4575;SDS011;2300;51.874;8.430;2022-09-12T08:35:05;1999.90;;;999.90;;
4575;SDS011;2300;51.874;8.430;2022-09-12T08:37:32;1999.90;;;999.90;;
4575;SDS011;2300;51.874;8.430;2022-09-12T08:39:58;1999.90;;;999.90;;
4575;SDS011;2300;51.874;8.430;2022-09-12T08:42:26;1999.90;;;999.90;;
4575;SDS011;2300;51.874;8.430;2022-09-12T08:45:12;1999.90;;;999.90;;
4575;SDS011;2300;51.874;8.430;2022-09-12T08:47:44;1999.90;;;999.90;;
4575;SDS011;2300;51.874;8.430;2022-09-12T08:50:14;1999.90;;;999.90;;
4575;SDS011;2300;51.874;8.430;2022-09-12T08:52:45;1999.90;;;999.90;;
4575;SDS011;2300;51.874;8.430;2022-09-12T08:55:21;1999.90;;;999.90;;
4575;SDS011;2300;51.874;8.430;2022-09-12T08:57:52;1999.90;;;999.90;;
4575;SDS011;2300;51.874;8.430;2022-09-12T09:00:21;1999.90;;;999.90;;
4575;SDS011;2300;51.874;8.430;2022-09-12T09:02:59;1999.90;;;999.90;;
4575;SDS011;2300;51.874;8.430;2022-09-12T09:05:49;1999.90;;;999.90;;
4575;SDS011;2300;51.874;8.430;2022-09-12T09:08:23;1999.90;;;999.90;;
4575;SDS011;2300;51.874;8.430;2022-09-12T09:10:58;1999.90;;;999.90;;
4575;SDS011;2300;51.874;8.430;2022-09-12T09:13:37;1999.90;;;999.90;;
4575;SDS011;2300;51.874;8.430;2022-09-12T09:16:33;1999.90;;;999.90;;
4575;SDS011;2300;51.874;8.430;2022-09-12T09:19:03;1999.90;;;999.90;;
4575;SDS011;2300;51.874;8.430;2022-09-12T09:21:36;1999.90;;;999.90;;
4575;SDS011;2300;51.874;8.430;2022-09-12T09:24:07;1999.90;;;999.90;;
4575;SDS011;2300;51.874;8.430;2022-09-12T09:26:39;1999.90;;;999.90;;
4575;SDS011;2300;51.874;8.430;2022-09-12T09:29:12;1999.90;;;999.90;;
4575;SDS011;2300;51.874;8.430;2022-09-12T09:31:44;1999.90;;;999.90;;
4575;SDS011;2300;51.874;8.430;2022-09-12T09:34:14;1999.90;;;999.90;;
4575;SDS011;2300;51.874;8.430;2022-09-12T09:36:47;1999.90;;;999.90;;
4575;SDS011;2300;51.874;8.430;2022-09-12T09:39:18;1999.90;;;999.90;;
4575;SDS011;2300;51.874;8.430;2022-09-12T09:41:54;1999.90;;;999.90;;
4575;SDS011;2300;51.874;8.430;2022-09-12T09:44:31;1999.90;;;999.90;;
4575;SDS011;2300;51.874;8.430;2022-09-12T09:46:59;1999.90;;;999.90;;
4575;SDS011;2300;51.874;8.430;2022-09-12T09:49:27;1999.90;;;999.90;;
4575;SDS011;2300;51.874;8.430;2022-09-12T09:51:57;1999.90;;;999.90;;
4575;SDS011;2300;51.874;8.430;2022-09-12T09:54:25;1999.90;;;999.90;;
4575;SDS011;2300;51.874;8.430;2022-09-12T09:56:56;1999.90;;;999.90;;
4575;SDS011;2300;51.874;8.430;2022-09-12T09:59:25;1999.90;;;999.90;;
4575;SDS011;2300;51.874;8.430;2022-09-12T10:01:53;1999.90;;;999.90;;
4575;SDS011;2300;51.874;8.430;2022-09-12T10:04:28;1999.90;;;999.90;;
4575;SDS011;2300;51.874;8.430;2022-09-12T10:06:56;1999.90;;;999.90;;
4575;SDS011;2300;51.874;8.430;2022-09-12T10:09:25;1999.90;;;999.90;;
4575;SDS011;2300;51.874;8.430;2022-09-12T10:11:53;1999.90;;;999.90;;
4575;SDS011;2300;51.874;8.430;2022-09-12T10:14:28;1999.90;;;999.90;;
4575;SDS011;2300;51.874;8.430;2022-09-12T10:16:57;1999.90;;;999.90;;
4575;SDS011;2300;51.874;8.430;2022-09-12T10:19:33;1999.90;;;999.90;;
4575;SDS011;2300;51.874;8.430;2022-09-12T10:22:01;1999.90;;;999.90;;
4575;SDS011;2300;51.874;8.430;2022-09-12T10:24:29;1999.90;;;999.90;;
4575;SDS011;2300;51.874;8.430;2022-09-12T10:27:04;1999.90;;;999.90;;
4575;SDS011;2300;51.874;8.430;2022-09-12T10:29:39;1999.90;;;999.90;;
4575;SDS011;2300;51.874;8.430;2022-09-12T10:32:11;1999.90;;;999.90;;
4575;SDS011;2300;51.874;8.430;2022-09-12T10:34:46;1999.90;;;999.90;;
4575;SDS011;2300;51.874;8.430;2022-09-12T10:37:16;1999.90;;;999.90;;
4575;SDS011;2300;51.874;8.430;2022-09-12T10:39:49;1999.90;;;999.90;;
4575;SDS011;2300;51.874;8.430;2022-09-12T10:45:14;1999.90;;;999.90;;
4575;SDS011;2300;51.874;8.430;2022-09-12T10:47:44;1999.90;;;999.90;;
4575;SDS011;2300;51.874;8.430;2022-09-12T10:53:11;1999.90;;;999.90;;
4575;SDS011;2300;51.874;8.430;2022-09-12T10:55:40;1999.90;;;999.90;;
4575;SDS011;2300;51.874;8.430;2022-09-12T10:58:24;1999.90;;;999.90;;
4575;SDS011;2300;51.874;8.430;2022-09-12T11:01:03;1999.90;;;999.90;;
4575;SDS011;2300;51.874;8.430;2022-09-12T11:03:45;1999.90;;;999.90;;
4575;SDS011;2300;51.874;8.430;2022-09-12T11:06:29;1999.90;;;999.90;;
4575;SDS011;2300;51.874;8.430;2022-09-12T11:09:03;1999.90;;;999.90;;
4575;SDS011;2300;51.874;8.430;2022-09-12T11:11:42;1999.90;;;999.90;;
4575;SDS011;2300;51.874;8.430;2022-09-12T11:14:20;1999.90;;;999.90;;
4575;SDS011;2300;51.874;8.430;2022-09-12T11:16:54;1999.90;;;999.90;;
4575;SDS011;2300;51.874;8.430;2022-09-12T11:19:44;1999.90;;;999.90;;
4575;SDS011;2300;51.874;8.430;2022-09-12T11:22:26;1999.90;;;999.90;;
4575;SDS011;2300;51.874;8.430;2022-09-12T11:28:13;1999.90;;;999.90;;
4575;SDS011;2300;51.874;8.430;2022-09-12T11:30:54;1999.90;;;999.90;;
4575;SDS011;2300;51.874;8.430;2022-09-12T11:33:35;1999.90;;;999.90;;
4575;SDS011;2300;51.874;8.430;2022-09-12T11:36:10;1999.90;;;999.90;;
4575;SDS011;2300;51.874;8.430;2022-09-12T11:38:53;1999.90;;;999.90;;
4575;SDS011;2300;51.874;8.430;2022-09-12T11:41:29;1999.90;;;999.90;;
4575;SDS011;2300;51.874;8.430;2022-09-12T11:43:59;1999.90;;;999.90;;
4575;SDS011;2300;51.874;8.430;2022-09-12T11:46:33;1999.90;;;999.90;;
4575;SDS011;2300;51.874;8.430;2022-09-12T11:49:03;1999.90;;;999.90;;
4575;SDS011;2300;51.874;8.430;2022-09-12T11:51:39;1999.90;;;999.90;;
4575;SDS011;2300;51.874;8.430;2022-09-12T11:54:13;1999.90;;;999.90;;
4575;SDS011;2300;51.874;8.430;2022-09-12T11:56:46;1999.90;;;999.90;;
4575;SDS011;2300;51.874;8.430;2022-09-12T11:59:25;1999.90;;;999.90;;
4575;SDS011;2300;51.874;8.430;2022-09-12T12:01:58;1999.90;;;999.90;;
4575;SDS011;2300;51.874;8.430;2022-09-12T12:04:26;1999.90;;;999.90;;
4575;SDS011;2300;51.874;8.430;2022-09-12T12:07:00;1999.90;;;999.90;;
4575;SDS011;2300;51.874;8.430;2022-09-12T12:09:31;1999.90;;;999.90;;
4575;SDS011;2300;51.874;8.430;2022-09-12T12:11:59;1999.90;;;999.90;;
4575;SDS011;2300;51.874;8.430;2022-09-12T12:14:32;1999.90;;;999.90;;
4575;SDS011;2300;51.874;8.430;2022-09-12T12:17:03;1999.90;;;999.90;;
4575;SDS011;2300;51.874;8.430;2022-09-12T12:19:37;1999.90;;;999.90;;
4575;SDS011;2300;51.874;8.430;2022-09-12T12:22:04;1999.90;;;999.90;;
4575;SDS011;2300;51.874;8.430;2022-09-12T12:24:34;1999.90;;;999.90;;
4575;SDS011;2300;51.874;8.430;2022-09-12T12:27:23;1999.90;;;999.90;;
4575;SDS011;2300;51.874;8.430;2022-09-12T12:36:29;1999.90;;;999.90;;
4575;SDS011;2300;51.874;8.430;2022-09-12T12:48:45;1999.90;;;999.90;;
4575;SDS011;2300;51.874;8.430;2022-09-12T12:54:27;1999.90;;;999.90;;
4575;SDS011;2300;51.874;8.430;2022-09-12T13:00:27;1999.90;;;999.90;;
4575;SDS011;2300;51.874;8.430;2022-09-12T13:03:00;1020.72;;;519.53;;
4575;SDS011;2300;51.874;8.430;2022-09-12T13:05:38;1999.90;;;999.90;;
4575;SDS011;2300;51.874;8.430;2022-09-12T13:08:09;1999.90;;;999.90;;
4575;SDS011;2300;51.874;8.430;2022-09-12T13:10:50;42.78;;;40.28;;
4575;SDS011;2300;51.874;8.430;2022-09-12T13:13:21;1999.90;;;999.90;;
4575;SDS011;2300;51.874;8.430;2022-09-12T13:15:50;43.78;;;41.08;;
4575;SDS011;2300;51.874;8.430;2022-09-12T13:18:19;47.45;;;44.85;;
4575;SDS011;2300;51.874;8.430;2022-09-12T13:20:54;47.50;;;44.83;;
4575;SDS011;2300;51.874;8.430;2022-09-12T13:23:28;46.25;;;43.72;;
4575;SDS011;2300;51.874;8.430;2022-09-12T13:25:57;46.08;;;43.50;;
4575;SDS011;2300;51.874;8.430;2022-09-12T13:28:25;52.42;;;49.58;;
4575;SDS011;2300;51.874;8.430;2022-09-12T13:30:57;54.08;;;51.28;;
4575;SDS011;2300;51.874;8.430;2022-09-12T13:33:32;58.80;;;55.72;;
4575;SDS011;2300;51.874;8.430;2022-09-12T13:39:13;1517.43;;;766.58;;
4575;SDS011;2300;51.874;8.430;2022-09-12T13:41:58;72.82;;;68.97;;
4575;SDS011;2300;51.874;8.430;2022-09-12T13:44:45;1039.28;;;537.33;;
4575;SDS011;2300;51.874;8.430;2022-09-12T13:47:16;1520.90;;;769.90;;
4575;SDS011;2300;51.874;8.430;2022-09-12T13:49:47;1521.25;;;770.22;;
4575;SDS011;2300;51.874;8.430;2022-09-12T13:52:16;98.05;;;93.35;;
4575;SDS011;2300;51.874;8.430;2022-09-12T13:54:46;1523.65;;;772.55;;
4575;SDS011;2300;51.874;8.430;2022-09-12T13:57:26;1048.40;;;546.05;;
4575;SDS011;2300;51.874;8.430;2022-09-12T13:59:55;88.22;;;83.82;;
4575;SDS011;2300;51.874;8.430;2022-09-12T14:02:23;1046.35;;;544.17;;
4575;SDS011;2300;51.874;8.430;2022-09-12T14:04:52;91.88;;;87.53;;
4575;SDS011;2300;51.874;8.430;2022-09-12T14:07:41;104.45;;;99.47;;
4575;SDS011;2300;51.874;8.430;2022-09-12T14:10:19;96.85;;;92.32;;
4575;SDS011;2300;51.874;8.430;2022-09-12T14:12:48;102.30;;;97.60;;
4575;SDS011;2300;51.874;8.430;2022-09-12T14:15:18;1999.90;;;999.90;;
4575;SDS011;2300;51.874;8.430;2022-09-12T14:17:49;1527.47;;;776.20;;
4575;SDS011;2300;51.874;8.430;2022-09-12T14:20:17;1526.50;;;775.30;;
4575;SDS011;2300;51.874;8.430;2022-09-12T14:22:48;1526.75;;;775.50;;
4575;SDS011;2300;51.874;8.430;2022-09-12T14:25:16;1999.90;;;999.90;;
4575;SDS011;2300;51.874;8.430;2022-09-12T14:27:45;118.88;;;113.50;;
4575;SDS011;2300;51.874;8.430;2022-09-12T14:30:22;1999.90;;;999.90;;
4575;SDS011;2300;51.874;8.430;2022-09-12T14:35:43;1530.47;;;779.08;;
4575;SDS011;2300;51.874;8.430;2022-09-12T14:38:17;1999.90;;;999.90;;
4575;SDS011;2300;51.874;8.430;2022-09-12T14:40:49;1527.35;;;776.13;;
4575;SDS011;2300;51.874;8.430;2022-09-12T14:43:19;1999.90;;;999.90;;
4575;SDS011;2300;51.874;8.430;2022-09-12T14:45:52;105.70;;;100.85;;
4575;SDS011;2300;51.874;8.430;2022-09-12T14:48:23;1057.55;;;554.92;;
4575;SDS011;2300;51.874;8.430;2022-09-12T14:50:51;1527.93;;;776.63;;
4575;SDS011;2300;51.874;8.430;2022-09-12T14:53:21;1530.80;;;779.40;;
4575;SDS011;2300;51.874;8.430;2022-09-12T14:55:50;1999.90;;;999.90;;
4575;SDS011;2300;51.874;8.430;2022-09-12T14:58:22;1528.63;;;777.33;;
4575;SDS011;2300;51.874;8.430;2022-09-12T15:00:51;1999.90;;;999.90;;
4575;SDS011;2300;51.874;8.430;2022-09-12T15:03:23;1999.90;;;999.90;;
4575;SDS011;2300;51.874;8.430;2022-09-12T15:05:51;1999.90;;;999.90;;
4575;SDS011;2300;51.874;8.430;2022-09-12T15:08:18;1999.90;;;999.90;;
4575;SDS011;2300;51.874;8.430;2022-09-12T15:10:46;1999.90;;;999.90;;
4575;SDS011;2300;51.874;8.430;2022-09-12T15:13:18;1528.18;;;776.92;;